sensor_id;sensor_type;location;lat;lon;timestamp;pressure;altitude;pressure_sealevel;temperature
64600;BMP280;6553;48.412;9.514;2023-07-30T00:01:57;71940.66;;;22.39
64600;BMP280;6553;48.412;9.514;2023-07-30T00:04:23;71938.44;;;22.39
64600;BMP280;6553;48.412;9.514;2023-07-30T00:06:49;71941.22;;;22.39
64600;BMP280;6553;48.412;9.514;2023-07-30T00:09:15;71939.50;;;22.40
64600;BMP280;6553;48.412;9.514;2023-07-30T00:11:40;71937.88;;;22.39
64600;BMP280;6553;48.412;9.514;2023-07-30T00:14:06;71937.34;;;22.38
64600;BMP280;6553;48.412;9.514;2023-07-30T00:16:32;71938.44;;;22.39
64600;BMP280;6553;48.412;9.514;2023-07-30T00:18:57;71938.44;;;22.39
64600;BMP280;6553;48.412;9.514;2023-07-30T00:21:23;71934.44;;;22.41
64600;BMP280;6553;48.412;9.514;2023-07-30T00:23:49;71938.44;;;22.39
64600;BMP280;6553;48.412;9.514;2023-07-30T00:26:14;71934.03;;;22.38
64600;BMP280;6553;48.412;9.514;2023-07-30T00:28:40;71936.81;;;22.38
64600;BMP280;6553;48.412;9.514;2023-07-30T00:31:06;71940.13;;;22.38
64600;BMP280;6553;48.412;9.514;2023-07-30T00:33:32;71935.25;;;22.36
64600;BMP280;6553;48.412;9.514;2023-07-30T00:35:57;71939.06;;;22.37
64600;BMP280;6553;48.412;9.514;2023-07-30T00:38:23;71933.00;;;22.37
64600;BMP280;6553;48.412;9.514;2023-07-30T00:40:49;71933.50;;;22.37
64600;BMP280;6553;48.412;9.514;2023-07-30T00:43:15;71936.81;;;22.38
64600;BMP280;6553;48.412;9.514;2023-07-30T00:45:43;71932.47;;;22.36
64600;BMP280;6553;48.412;9.514;2023-07-30T00:48:11;71936.28;;;22.37
64600;BMP280;6553;48.412;9.514;2023-07-30T00:50:38;71933.63;;;22.35
64600;BMP280;6553;48.412;9.514;2023-07-30T00:53:05;71936.81;;;22.38
64600;BMP280;6553;48.412;9.514;2023-07-30T00:55:31;71935.78;;;22.37
64600;BMP280;6553;48.412;9.514;2023-07-30T00:57:58;71929.69;;;22.36
64600;BMP280;6553;48.412;9.514;2023-07-30T01:00:24;71935.25;;;22.36
64600;BMP280;6553;48.412;9.514;2023-07-30T01:02:51;71938.03;;;22.36
64600;BMP280;6553;48.412;9.514;2023-07-30T01:05:17;71935.88;;;22.34
64600;BMP280;6553;48.412;9.514;2023-07-30T01:07:43;71930.84;;;22.35
64600;BMP280;6553;48.412;9.514;2023-07-30T01:10:09;71934.72;;;22.36
64600;BMP280;6553;48.412;9.514;2023-07-30T01:12:37;71935.78;;;22.37
64600;BMP280;6553;48.412;9.514;2023-07-30T01:15:04;71931.91;;;22.36
64600;BMP280;6553;48.412;9.514;2023-07-30T01:17:30;71941.34;;;22.37
64600;BMP280;6553;48.412;9.514;2023-07-30T01:19:56;71930.22;;;22.37
64600;BMP280;6553;48.412;9.514;2023-07-30T01:22:23;71935.78;;;22.37
64600;BMP280;6553;48.412;9.514;2023-07-30T01:24:49;71934.72;;;22.36
64600;BMP280;6553;48.412;9.514;2023-07-30T01:27:25;71935.25;;;22.36
64600;BMP280;6553;48.412;9.514;2023-07-30T01:30:07;71932.47;;;22.36
64600;BMP280;6553;48.412;9.514;2023-07-30T01:32:35;71934.16;;;22.35
64600;BMP280;6553;48.412;9.514;2023-07-30T01:35:03;71932.56;;;22.34
64600;BMP280;6553;48.412;9.514;2023-07-30T01:37:31;71933.09;;;22.34
64600;BMP280;6553;48.412;9.514;2023-07-30T01:40:00;71934.31;;;22.33
64600;BMP280;6553;48.412;9.514;2023-07-30T01:42:30;71930.84;;;22.35
64600;BMP280;6553;48.412;9.514;2023-07-30T01:44:56;71932.56;;;22.34
64600;BMP280;6553;48.412;9.514;2023-07-30T01:47:22;71933.09;;;22.34
64600;BMP280;6553;48.412;9.514;2023-07-30T01:49:47;71936.56;;;22.32
64600;BMP280;6553;48.412;9.514;2023-07-30T01:52:13;71930.31;;;22.34
64600;BMP280;6553;48.412;9.514;2023-07-30T01:54:39;71932.06;;;22.33
64600;BMP280;6553;48.412;9.514;2023-07-30T01:57:05;71933.09;;;22.34
64600;BMP280;6553;48.412;9.514;2023-07-30T01:59:31;71930.31;;;22.34
64600;BMP280;6553;48.412;9.514;2023-07-30T02:01:57;71928.75;;;22.33
64600;BMP280;6553;48.412;9.514;2023-07-30T02:04:23;71934.31;;;22.33
64600;BMP280;6553;48.412;9.514;2023-07-30T02:06:48;71930.44;;;22.32
64600;BMP280;6553;48.412;9.514;2023-07-30T02:09:14;71936.56;;;22.32
64600;BMP280;6553;48.412;9.514;2023-07-30T02:11:40;71925.97;;;22.33
64600;BMP280;6553;48.412;9.514;2023-07-30T02:14:06;71928.84;;;22.30
64600;BMP280;6553;48.412;9.514;2023-07-30T02:16:32;71927.13;;;22.31
64600;BMP280;6553;48.412;9.514;2023-07-30T02:18:57;71928.34;;;22.30
64600;BMP280;6553;48.412;9.514;2023-07-30T02:21:23;71928.34;;;22.30
64600;BMP280;6553;48.412;9.514;2023-07-30T02:23:49;71927.81;;;22.29
64600;BMP280;6553;48.412;9.514;2023-07-30T02:26:14;71929.91;;;22.31
64600;BMP280;6553;48.412;9.514;2023-07-30T02:28:40;71925.56;;;22.30
64600;BMP280;6553;48.412;9.514;2023-07-30T02:31:06;71924.50;;;22.29
64600;BMP280;6553;48.412;9.514;2023-07-30T02:33:31;71922.25;;;22.29
64600;BMP280;6553;48.412;9.514;2023-07-30T02:35:57;71927.81;;;22.29
64600;BMP280;6553;48.412;9.514;2023-07-30T02:38:23;71923.94;;;22.28
64600;BMP280;6553;48.412;9.514;2023-07-30T02:40:49;71924.50;;;22.29
64600;BMP280;6553;48.412;9.514;2023-07-30T02:43:14;71928.34;;;22.30
64600;BMP280;6553;48.412;9.514;2023-07-30T02:45:40;71926.19;;;22.28
64600;BMP280;6553;48.412;9.514;2023-07-30T02:48:06;71921.81;;;22.26
64600;BMP280;6553;48.412;9.514;2023-07-30T02:50:32;71927.81;;;22.29
64600;BMP280;6553;48.412;9.514;2023-07-30T02:52:57;71927.25;;;22.29
64600;BMP280;6553;48.412;9.514;2023-07-30T02:55:23;71931.63;;;22.30
64600;BMP280;6553;48.412;9.514;2023-07-30T02:57:49;71931.13;;;22.30
64600;BMP280;6553;48.412;9.514;2023-07-30T03:00:15;71921.16;;;22.28
64600;BMP280;6553;48.412;9.514;2023-07-30T03:02:41;71926.19;;;22.28
64600;BMP280;6553;48.412;9.514;2023-07-30T03:05:07;71923.41;;;22.28
64600;BMP280;6553;48.412;9.514;2023-07-30T03:07:33;71925.66;;;22.27
64600;BMP280;6553;48.412;9.514;2023-07-30T03:09:59;71925.66;;;22.27
64600;BMP280;6553;48.412;9.514;2023-07-30T03:12:25;71918.53;;;22.26
64600;BMP280;6553;48.412;9.514;2023-07-30T03:14:50;71927.91;;;22.27
64600;BMP280;6553;48.412;9.514;2023-07-30T03:17:16;71918.53;;;22.26
64600;BMP280;6553;48.412;9.514;2023-07-30T03:19:42;71922.47;;;22.24
64600;BMP280;6553;48.412;9.514;2023-07-30T03:22:08;71922.47;;;22.24
64600;BMP280;6553;48.412;9.514;2023-07-30T03:24:33;71921.94;;;22.24
64600;BMP280;6553;48.412;9.514;2023-07-30T03:26:59;71927.91;;;22.27
64600;BMP280;6553;48.412;9.514;2023-07-30T03:29:25;71921.31;;;22.26
64600;BMP280;6553;48.412;9.514;2023-07-30T03:31:50;71921.94;;;22.24
64600;BMP280;6553;48.412;9.514;2023-07-30T03:34:16;71925.25;;;22.24
64600;BMP280;6553;48.412;9.514;2023-07-30T03:36:42;71917.06;;;22.22
64600;BMP280;6553;48.412;9.514;2023-07-30T03:39:07;71916.91;;;22.24
64600;BMP280;6553;48.412;9.514;2023-07-30T03:41:33;71921.41;;;22.23
64600;BMP280;6553;48.412;9.514;2023-07-30T03:44:00;71919.69;;;22.24
64600;BMP280;6553;48.412;9.514;2023-07-30T03:46:26;71921.41;;;22.23
64600;BMP280;6553;48.412;9.514;2023-07-30T03:48:53;71920.22;;;22.25
64600;BMP280;6553;48.412;9.514;2023-07-30T03:51:19;71921.41;;;22.23
64600;BMP280;6553;48.412;9.514;2023-07-30T03:53:44;71921.41;;;22.23
64600;BMP280;6553;48.412;9.514;2023-07-30T03:56:10;71912.66;;;22.20
64600;BMP280;6553;48.412;9.514;2023-07-30T03:58:36;71923.13;;;22.22
64600;BMP280;6553;48.412;9.514;2023-07-30T04:01:02;71917.56;;;22.22
64600;BMP280;6553;48.412;9.514;2023-07-30T04:03:28;71919.81;;;22.22
64600;BMP280;6553;48.412;9.514;2023-07-30T04:05:53;71915.31;;;22.23
64600;BMP280;6553;48.412;9.514;2023-07-30T04:08:19;71916.50;;;22.21
64600;BMP280;6553;48.412;9.514;2023-07-30T04:10:46;71915.31;;;22.23
64600;BMP280;6553;48.412;9.514;2023-07-30T04:13:12;71918.75;;;22.21
64600;BMP280;6553;48.412;9.514;2023-07-30T04:15:38;71919.81;;;22.22
64600;BMP280;6553;48.412;9.514;2023-07-30T04:18:04;71919.28;;;22.21
64600;BMP280;6553;48.412;9.514;2023-07-30T04:20:29;71923.78;;;22.20
64600;BMP280;6553;48.412;9.514;2023-07-30T04:22:55;71917.69;;;22.20
64600;BMP280;6553;48.412;9.514;2023-07-30T04:25:21;71912.13;;;22.20
64600;BMP280;6553;48.412;9.514;2023-07-30T04:27:47;71915.03;;;22.17
64600;BMP280;6553;48.412;9.514;2023-07-30T04:30:12;71915.56;;;22.18
64600;BMP280;6553;48.412;9.514;2023-07-30T04:32:39;71915.44;;;22.20
64600;BMP280;6553;48.412;9.514;2023-07-30T04:35:05;71916.63;;;22.19
64600;BMP280;6553;48.412;9.514;2023-07-30T04:37:31;71918.22;;;22.20
64600;BMP280;6553;48.412;9.514;2023-07-30T04:39:57;71911.59;;;22.19
64600;BMP280;6553;48.412;9.514;2023-07-30T04:42:23;71917.69;;;22.20
64600;BMP280;6553;48.412;9.514;2023-07-30T04:44:49;71917.69;;;22.20
64600;BMP280;6553;48.412;9.514;2023-07-30T04:47:16;71918.88;;;22.18
64600;BMP280;6553;48.412;9.514;2023-07-30T04:49:42;71917.69;;;22.20
64600;BMP280;6553;48.412;9.514;2023-07-30T04:52:08;71910.00;;;22.18
64600;BMP280;6553;48.412;9.514;2023-07-30T04:54:34;71917.16;;;22.19
64600;BMP280;6553;48.412;9.514;2023-07-30T04:57:02;71913.31;;;22.18
64600;BMP280;6553;48.412;9.514;2023-07-30T04:59:28;71916.63;;;22.19
64600;BMP280;6553;48.412;9.514;2023-07-30T05:01:54;71914.50;;;22.17
64600;BMP280;6553;48.412;9.514;2023-07-30T05:04:20;71916.63;;;22.19
64600;BMP280;6553;48.412;9.514;2023-07-30T05:06:45;71916.09;;;22.18
64600;BMP280;6553;48.412;9.514;2023-07-30T05:09:11;71917.16;;;22.19
64600;BMP280;6553;48.412;9.514;2023-07-30T05:11:38;71910.00;;;22.18
64600;BMP280;6553;48.412;9.514;2023-07-30T05:14:04;71913.31;;;22.18
64600;BMP280;6553;48.412;9.514;2023-07-30T05:16:30;71908.94;;;22.17
64600;BMP280;6553;48.412;9.514;2023-07-30T05:18:56;71917.81;;;22.17
64600;BMP280;6553;48.412;9.514;2023-07-30T05:21:21;71915.03;;;22.17
64600;BMP280;6553;48.412;9.514;2023-07-30T05:23:47;71911.72;;;22.17
64600;BMP280;6553;48.412;9.514;2023-07-30T05:26:13;71915.56;;;22.18
64600;BMP280;6553;48.412;9.514;2023-07-30T05:28:39;71917.81;;;22.17
64600;BMP280;6553;48.412;9.514;2023-07-30T05:31:04;71917.81;;;22.17
64600;BMP280;6553;48.412;9.514;2023-07-30T05:33:30;71916.09;;;22.18
64600;BMP280;6553;48.412;9.514;2023-07-30T05:35:56;71917.28;;;22.17
64600;BMP280;6553;48.412;9.514;2023-07-30T05:38:22;71915.56;;;22.18
64600;BMP280;6553;48.412;9.514;2023-07-30T05:40:47;71915.03;;;22.17
64600;BMP280;6553;48.412;9.514;2023-07-30T05:43:13;71913.84;;;22.19
64600;BMP280;6553;48.412;9.514;2023-07-30T05:45:39;71915.56;;;22.18
64600;BMP280;6553;48.412;9.514;2023-07-30T05:48:05;71917.28;;;22.17
64600;BMP280;6553;48.412;9.514;2023-07-30T05:50:31;71913.97;;;22.16
64600;BMP280;6553;48.412;9.514;2023-07-30T05:52:56;71923.38;;;22.17
64600;BMP280;6553;48.412;9.514;2023-07-30T05:55:22;71913.97;;;22.16
64600;BMP280;6553;48.412;9.514;2023-07-30T05:57:48;71912.25;;;22.17
64600;BMP280;6553;48.412;9.514;2023-07-30T06:00:14;71914.50;;;22.17
64600;BMP280;6553;48.412;9.514;2023-07-30T06:02:40;71910.13;;;22.15
64600;BMP280;6553;48.412;9.514;2023-07-30T06:05:06;71912.91;;;22.15
64600;BMP280;6553;48.412;9.514;2023-07-30T06:07:31;71916.75;;;22.16
64600;BMP280;6553;48.412;9.514;2023-07-30T06:09:57;71912.38;;;22.15
64600;BMP280;6553;48.412;9.514;2023-07-30T06:12:23;71909.06;;;22.14
64600;BMP280;6553;48.412;9.514;2023-07-30T06:14:48;71916.75;;;22.16
64600;BMP280;6553;48.412;9.514;2023-07-30T06:17:14;71911.72;;;22.17
64600;BMP280;6553;48.412;9.514;2023-07-30T06:19:40;71911.84;;;22.14
64600;BMP280;6553;48.412;9.514;2023-07-30T06:22:06;71908.94;;;22.17
64600;BMP280;6553;48.412;9.514;2023-07-30T06:24:31;71915.03;;;22.17
64600;BMP280;6553;48.412;9.514;2023-07-30T06:26:57;71915.69;;;22.15
64600;BMP280;6553;48.412;9.514;2023-07-30T06:29:23;71915.69;;;22.15
64600;BMP280;6553;48.412;9.514;2023-07-30T06:31:48;71912.91;;;22.15
64600;BMP280;6553;48.412;9.514;2023-07-30T06:34:14;71919.00;;;22.16
64600;BMP280;6553;48.412;9.514;2023-07-30T06:36:40;71912.78;;;22.18
64600;BMP280;6553;48.412;9.514;2023-07-30T06:39:06;71912.91;;;22.15
64600;BMP280;6553;48.412;9.514;2023-07-30T06:41:32;71915.56;;;22.18
64600;BMP280;6553;48.412;9.514;2023-07-30T06:43:58;71915.03;;;22.17
64600;BMP280;6553;48.412;9.514;2023-07-30T06:46:23;71913.31;;;22.18
64600;BMP280;6553;48.412;9.514;2023-07-30T06:48:49;71911.19;;;22.16
64600;BMP280;6553;48.412;9.514;2023-07-30T06:51:19;71914.50;;;22.17
64600;BMP280;6553;48.412;9.514;2023-07-30T06:53:45;71919.53;;;22.16
64600;BMP280;6553;48.412;9.514;2023-07-30T06:56:10;71917.81;;;22.17
64600;BMP280;6553;48.412;9.514;2023-07-30T06:58:36;71908.41;;;22.16
64600;BMP280;6553;48.412;9.514;2023-07-30T07:01:02;71905.75;;;22.14
64600;BMP280;6553;48.412;9.514;2023-07-30T07:03:28;71917.81;;;22.17
64600;BMP280;6553;48.412;9.514;2023-07-30T07:05:55;71919.00;;;22.16
64600;BMP280;6553;48.412;9.514;2023-07-30T07:08:22;71909.06;;;22.14
64600;BMP280;6553;48.412;9.514;2023-07-30T07:10:48;71911.72;;;22.17
64600;BMP280;6553;48.412;9.514;2023-07-30T07:13:14;71916.63;;;22.19
64600;BMP280;6553;48.412;9.514;2023-07-30T07:15:42;71924.72;;;22.24
64600;BMP280;6553;48.412;9.514;2023-07-30T07:18:08;71923.41;;;22.28
64600;BMP280;6553;48.412;9.514;2023-07-30T07:20:34;71921.94;;;22.24
64600;BMP280;6553;48.412;9.514;2023-07-30T07:22:59;71925.13;;;22.27
64600;BMP280;6553;48.412;9.514;2023-07-30T07:25:25;71926.72;;;22.28
64600;BMP280;6553;48.412;9.514;2023-07-30T07:27:51;71928.34;;;22.30
64600;BMP280;6553;48.412;9.514;2023-07-30T07:30:16;71932.56;;;22.34
64600;BMP280;6553;48.412;9.514;2023-07-30T07:32:42;71935.34;;;22.34
64600;BMP280;6553;48.412;9.514;2023-07-30T07:35:09;71935.25;;;22.36
64600;BMP280;6553;48.412;9.514;2023-07-30T07:37:35;71933.00;;;22.37
64600;BMP280;6553;48.412;9.514;2023-07-30T07:40:01;71935.78;;;22.37
64600;BMP280;6553;48.412;9.514;2023-07-30T07:42:26;71936.81;;;22.38
64600;BMP280;6553;48.412;9.514;2023-07-30T07:44:52;71933.50;;;22.37
64600;BMP280;6553;48.412;9.514;2023-07-30T07:47:18;71937.34;;;22.38
64600;BMP280;6553;48.412;9.514;2023-07-30T07:49:44;71937.34;;;22.38
64600;BMP280;6553;48.412;9.514;2023-07-30T07:52:09;71935.25;;;22.36
64600;BMP280;6553;48.412;9.514;2023-07-30T07:54:35;71933.63;;;22.35
64600;BMP280;6553;48.412;9.514;2023-07-30T07:57:01;71936.28;;;22.37
64600;BMP280;6553;48.412;9.514;2023-07-30T07:59:26;71936.28;;;22.37
64600;BMP280;6553;48.412;9.514;2023-07-30T08:01:53;71943.44;;;22.39
64600;BMP280;6553;48.412;9.514;2023-07-30T08:04:19;71942.38;;;22.38
64600;BMP280;6553;48.412;9.514;2023-07-30T08:06:47;71939.59;;;22.38
64600;BMP280;6553;48.412;9.514;2023-07-30T08:09:13;71946.00;;;22.44
64600;BMP280;6553;48.412;9.514;2023-07-30T08:11:39;71949.84;;;22.45
64600;BMP280;6553;48.412;9.514;2023-07-30T08:14:05;71942.13;;;22.43
64600;BMP280;6553;48.412;9.514;2023-07-30T08:16:30;71945.47;;;22.43
64600;BMP280;6553;48.412;9.514;2023-07-30T08:18:56;71937.75;;;22.41
64600;BMP280;6553;48.412;9.514;2023-07-30T08:21:22;71940.44;;;22.44
64600;BMP280;6553;48.412;9.514;2023-07-30T08:23:47;71942.69;;;22.43
64600;BMP280;6553;48.412;9.514;2023-07-30T08:26:13;71939.91;;;22.43
64600;BMP280;6553;48.412;9.514;2023-07-30T08:28:39;71940.53;;;22.41
64600;BMP280;6553;48.412;9.514;2023-07-30T08:31:05;71944.78;;;22.45
64600;BMP280;6553;48.412;9.514;2023-07-30T08:33:31;71945.72;;;22.49
64600;BMP280;6553;48.412;9.514;2023-07-30T08:36:01;71940.94;;;22.44
64600;BMP280;6553;48.412;9.514;2023-07-30T08:38:28;71939.75;;;22.46
64600;BMP280;6553;48.412;9.514;2023-07-30T08:40:54;71939.91;;;22.43
64600;BMP280;6553;48.412;9.514;2023-07-30T08:43:20;71945.31;;;22.46
64600;BMP280;6553;48.412;9.514;2023-07-30T08:45:46;71953.84;;;22.54
64600;BMP280;6553;48.412;9.514;2023-07-30T08:48:12;71953.69;;;22.56
64600;BMP280;6553;48.412;9.514;2023-07-30T08:50:39;71957.97;;;22.61
64600;BMP280;6553;48.412;9.514;2023-07-30T08:53:07;71961.56;;;22.67
64600;BMP280;6553;48.412;9.514;2023-07-30T08:55:34;71966.06;;;22.66
64600;BMP280;6553;48.412;9.514;2023-07-30T08:58:05;71959.03;;;22.62
64600;BMP280;6553;48.412;9.514;2023-07-30T09:00:37;71963.53;;;22.61
64600;BMP280;6553;48.412;9.514;2023-07-30T09:03:04;71953.69;;;22.56
64600;BMP280;6553;48.412;9.514;2023-07-30T09:05:31;71955.03;;;22.52
64600;BMP280;6553;48.412;9.514;2023-07-30T09:07:57;71952.75;;;22.53
64600;BMP280;6553;48.412;9.514;2023-07-30T09:10:23;71954.88;;;22.55
64600;BMP280;6553;48.412;9.514;2023-07-30T09:12:57;71958.22;;;22.55
64600;BMP280;6553;48.412;9.514;2023-07-30T09:15:38;71955.81;;;22.58
64600;BMP280;6553;48.412;9.514;2023-07-30T09:18:05;71962.31;;;22.62
64600;BMP280;6553;48.412;9.514;2023-07-30T09:20:38;71961.94;;;22.59
64600;BMP280;6553;48.412;9.514;2023-07-30T09:23:06;71953.69;;;22.56
64600;BMP280;6553;48.412;9.514;2023-07-30T09:25:33;71960.22;;;22.60
64600;BMP280;6553;48.412;9.514;2023-07-30T09:27:59;71961.69;;;22.64
64600;BMP280;6553;48.412;9.514;2023-07-30T09:30:26;71962.75;;;22.65
64600;BMP280;6553;48.412;9.514;2023-07-30T09:32:57;71960.22;;;22.60
64600;BMP280;6553;48.412;9.514;2023-07-30T09:35:25;71965.13;;;22.62
64600;BMP280;6553;48.412;9.514;2023-07-30T09:38:00;71960.63;;;22.63
64600;BMP280;6553;48.412;9.514;2023-07-30T09:40:37;71958.50;;;22.61
64600;BMP280;6553;48.412;9.514;2023-07-30T09:43:05;71966.59;;;22.66
64600;BMP280;6553;48.412;9.514;2023-07-30T09:45:35;71966.06;;;22.66
64600;BMP280;6553;48.412;9.514;2023-07-30T09:48:03;71963.41;;;22.63
64600;BMP280;6553;48.412;9.514;2023-07-30T09:50:31;71958.63;;;22.58
64600;BMP280;6553;48.412;9.514;2023-07-30T09:53:00;71957.44;;;22.60
64600;BMP280;6553;48.412;9.514;2023-07-30T09:55:27;71959.16;;;22.59
64600;BMP280;6553;48.412;9.514;2023-07-30T09:57:53;71950.41;;;22.56
64600;BMP280;6553;48.412;9.514;2023-07-30T10:00:19;71958.63;;;22.58
64600;BMP280;6553;48.412;9.514;2023-07-30T10:02:47;71963.41;;;22.63
64600;BMP280;6553;48.412;9.514;2023-07-30T10:05:19;71959.69;;;22.60
64600;BMP280;6553;48.412;9.514;2023-07-30T10:08:01;71963.00;;;22.60
64600;BMP280;6553;48.412;9.514;2023-07-30T10:10:29;71961.94;;;22.59
64600;BMP280;6553;48.412;9.514;2023-07-30T10:13:02;71949.88;;;22.55
64600;BMP280;6553;48.412;9.514;2023-07-30T10:15:35;71955.19;;;22.61
64600;BMP280;6553;48.412;9.514;2023-07-30T10:18:01;71972.03;;;22.69
64600;BMP280;6553;48.412;9.514;2023-07-30T10:20:28;71974.69;;;22.71
64600;BMP280;6553;48.412;9.514;2023-07-30T10:22:58;71976.28;;;22.73
64600;BMP280;6553;48.412;9.514;2023-07-30T10:25:43;71970.31;;;22.70
64600;BMP280;6553;48.412;9.514;2023-07-30T10:31:02;71965.53;;;22.65
64600;BMP280;6553;48.412;9.514;2023-07-30T10:33:46;71965.28;;;22.70
64600;BMP280;6553;48.412;9.514;2023-07-30T10:36:13;71963.69;;;22.69
64600;BMP280;6553;48.412;9.514;2023-07-30T10:38:39;71964.47;;;22.64
64600;BMP280;6553;48.412;9.514;2023-07-30T10:41:15;71966.59;;;22.66
64600;BMP280;6553;48.412;9.514;2023-07-30T10:43:49;71956.91;;;22.60
64600;BMP280;6553;48.412;9.514;2023-07-30T10:46:19;71962.88;;;22.63
64600;BMP280;6553;48.412;9.514;2023-07-30T10:48:48;71963.94;;;22.64
64600;BMP280;6553;48.412;9.514;2023-07-30T10:51:17;71962.88;;;22.63
64600;BMP280;6553;48.412;9.514;2023-07-30T10:53:44;71963.00;;;22.60
64600;BMP280;6553;48.412;9.514;2023-07-30T10:56:11;71967.25;;;22.64
64600;BMP280;6553;48.412;9.514;2023-07-30T10:58:37;71962.31;;;22.62
64600;BMP280;6553;48.412;9.514;2023-07-30T11:01:05;71963.41;;;22.63
64600;BMP280;6553;48.412;9.514;2023-07-30T11:03:32;71961.81;;;22.62
64600;BMP280;6553;48.412;9.514;2023-07-30T11:06:00;71958.63;;;22.58
64600;BMP280;6553;48.412;9.514;2023-07-30T11:08:52;71960.22;;;22.60
64600;BMP280;6553;48.412;9.514;2023-07-30T11:11:18;71960.22;;;22.60
64600;BMP280;6553;48.412;9.514;2023-07-30T11:13:47;71963.41;;;22.63
64600;BMP280;6553;48.412;9.514;2023-07-30T11:16:14;71967.66;;;22.67
64600;BMP280;6553;48.412;9.514;2023-07-30T11:18:42;71967.13;;;22.67
64600;BMP280;6553;48.412;9.514;2023-07-30T11:21:15;71962.75;;;22.65
64600;BMP280;6553;48.412;9.514;2023-07-30T11:23:43;71963.41;;;22.63
64600;BMP280;6553;48.412;9.514;2023-07-30T11:26:15;71962.22;;;22.65
64600;BMP280;6553;48.412;9.514;2023-07-30T11:28:41;71967.13;;;22.67
64600;BMP280;6553;48.412;9.514;2023-07-30T11:31:18;71970.97;;;22.68
64600;BMP280;6553;48.412;9.514;2023-07-30T11:33:47;71970.97;;;22.68
64600;BMP280;6553;48.412;9.514;2023-07-30T11:36:24;71970.44;;;22.67
64600;BMP280;6553;48.412;9.514;2023-07-30T11:38:52;71968.72;;;22.68
64600;BMP280;6553;48.412;9.514;2023-07-30T11:41:23;71964.19;;;22.69
64600;BMP280;6553;48.412;9.514;2023-07-30T11:43:49;71968.72;;;22.68
64600;BMP280;6553;48.412;9.514;2023-07-30T11:46:18;71972.03;;;22.69
64600;BMP280;6553;48.412;9.514;2023-07-30T11:48:50;71966.47;;;22.69
64600;BMP280;6553;48.412;9.514;2023-07-30T11:53:59;71968.31;;;22.65
64600;BMP280;6553;48.412;9.514;2023-07-30T11:56:28;71969.25;;;22.69
64600;BMP280;6553;48.412;9.514;2023-07-30T11:59:06;71961.81;;;22.62
64600;BMP280;6553;48.412;9.514;2023-07-30T12:01:35;71965.94;;;22.68
64600;BMP280;6553;48.412;9.514;2023-07-30T12:04:04;71972.56;;;22.69
64600;BMP280;6553;48.412;9.514;2023-07-30T12:06:47;71965.13;;;22.62
64600;BMP280;6553;48.412;9.514;2023-07-30T12:09:17;71965.41;;;22.68
64600;BMP280;6553;48.412;9.514;2023-07-30T12:12:01;71969.91;;;22.67
64600;BMP280;6553;48.412;9.514;2023-07-30T12:15:14;71970.97;;;22.68
64600;BMP280;6553;48.412;9.514;2023-07-30T12:17:14;71961.56;;;22.67
64600;BMP280;6553;48.412;9.514;2023-07-30T12:19:41;71968.19;;;22.68
64600;BMP280;6553;48.412;9.514;2023-07-30T12:22:07;71973.09;;;22.70
64600;BMP280;6553;48.412;9.514;2023-07-30T12:24:33;71968.19;;;22.68
64600;BMP280;6553;48.412;9.514;2023-07-30T12:26:59;71973.75;;;22.68
64600;BMP280;6553;48.412;9.514;2023-07-30T12:29:25;71975.88;;;22.70
64600;BMP280;6553;48.412;9.514;2023-07-30T12:31:51;71968.72;;;22.68
64600;BMP280;6553;48.412;9.514;2023-07-30T12:34:19;71980.13;;;22.74
64600;BMP280;6553;48.412;9.514;2023-07-30T12:36:45;71970.19;;;22.72
64600;BMP280;6553;48.412;9.514;2023-07-30T12:39:13;71969.78;;;22.69
64600;BMP280;6553;48.412;9.514;2023-07-30T12:41:39;71972.56;;;22.69
64600;BMP280;6553;48.412;9.514;2023-07-30T12:44:04;71967.53;;;22.70
64600;BMP280;6553;48.412;9.514;2023-07-30T12:46:31;71966.47;;;22.69
64600;BMP280;6553;48.412;9.514;2023-07-30T12:48:59;71966.47;;;22.69
64600;BMP280;6553;48.412;9.514;2023-07-30T12:51:31;71965.94;;;22.68
64600;BMP280;6553;48.412;9.514;2023-07-30T12:53:56;71969.78;;;22.69
64600;BMP280;6553;48.412;9.514;2023-07-30T12:56:22;71966.47;;;22.69
64600;BMP280;6553;48.412;9.514;2023-07-30T12:58:48;71975.88;;;22.70
64600;BMP280;6553;48.412;9.514;2023-07-30T13:01:14;71968.59;;;22.71
64600;BMP280;6553;48.412;9.514;2023-07-30T13:03:40;71972.44;;;22.72
64600;BMP280;6553;48.412;9.514;2023-07-30T13:06:11;71972.44;;;22.72
64600;BMP280;6553;48.412;9.514;2023-07-30T13:08:39;71975.88;;;22.70
64600;BMP280;6553;48.412;9.514;2023-07-30T13:11:05;71974.16;;;22.71
64600;BMP280;6553;48.412;9.514;2023-07-30T13:13:31;71974.69;;;22.71
64600;BMP280;6553;48.412;9.514;2023-07-30T13:15:58;71978.00;;;22.72
64600;BMP280;6553;48.412;9.514;2023-07-30T13:18:27;71976.28;;;22.73
64600;BMP280;6553;48.412;9.514;2023-07-30T13:20:53;71975.63;;;22.75
64600;BMP280;6553;48.412;9.514;2023-07-30T13:23:19;71977.34;;;22.74
64600;BMP280;6553;48.412;9.514;2023-07-30T13:25:45;71974.56;;;22.74
64600;BMP280;6553;48.412;9.514;2023-07-30T13:28:11;71973.50;;;22.73
64600;BMP280;6553;48.412;9.514;2023-07-30T13:30:36;71978.94;;;22.75
64600;BMP280;6553;48.412;9.514;2023-07-30T13:33:02;71977.75;;;22.77
64600;BMP280;6553;48.412;9.514;2023-07-30T13:35:28;71975.63;;;22.75
64600;BMP280;6553;48.412;9.514;2023-07-30T13:37:53;71967.53;;;22.70
64600;BMP280;6553;48.412;9.514;2023-07-30T13:40:19;71970.31;;;22.70
64600;BMP280;6553;48.412;9.514;2023-07-30T13:42:45;71974.56;;;22.74
64600;BMP280;6553;48.412;9.514;2023-07-30T13:45:11;71977.75;;;22.77
64600;BMP280;6553;48.412;9.514;2023-07-30T13:47:37;71978.81;;;22.78
64600;BMP280;6553;48.412;9.514;2023-07-30T13:50:03;71973.25;;;22.78
64600;BMP280;6553;48.412;9.514;2023-07-30T13:52:28;71974.44;;;22.76
64600;BMP280;6553;48.412;9.514;2023-07-30T13:54:54;71976.69;;;22.76
64600;BMP280;6553;48.412;9.514;2023-07-30T13:57:24;71981.06;;;22.77
64600;BMP280;6553;48.412;9.514;2023-07-30T13:59:51;71977.22;;;22.76
64600;BMP280;6553;48.412;9.514;2023-07-30T14:02:17;71975.09;;;22.74
64600;BMP280;6553;48.412;9.514;2023-07-30T14:04:42;71975.63;;;22.75
64600;BMP280;6553;48.412;9.514;2023-07-30T14:07:08;71972.97;;;22.72
64600;BMP280;6553;48.412;9.514;2023-07-30T14:09:34;71972.84;;;22.75
64600;BMP280;6553;48.412;9.514;2023-07-30T14:12:03;71974.44;;;22.76
64600;BMP280;6553;48.412;9.514;2023-07-30T14:14:29;71980.53;;;22.77
64600;BMP280;6553;48.412;9.514;2023-07-30T14:16:55;71978.81;;;22.78
64600;BMP280;6553;48.412;9.514;2023-07-30T14:19:21;71975.63;;;22.75
64600;BMP280;6553;48.412;9.514;2023-07-30T14:21:47;71975.09;;;22.74
64600;BMP280;6553;48.412;9.514;2023-07-30T14:24:13;71978.41;;;22.75
64600;BMP280;6553;48.412;9.514;2023-07-30T14:26:39;71977.34;;;22.74